sensor_id;sensor_type;location;lat;lon;timestamp;P1;durP1;ratioP1;P2;durP2;ratioP2
325;SDS011;150;52.352;14.058;2022-12-07T00:00:11;4.03;;;2.40;;
325;SDS011;150;52.352;14.058;2022-12-07T00:02:40;4.40;;;2.80;;
325;SDS011;150;52.352;14.058;2022-12-07T00:05:07;3.80;;;2.13;;
325;SDS011;150;52.352;14.058;2022-12-07T00:07:33;3.83;;;2.55;;
325;SDS011;150;52.352;14.058;2022-12-07T00:10:00;5.07;;;2.83;;
325;SDS011;150;52.352;14.058;2022-12-07T00:12:27;5.00;;;2.80;;
325;SDS011;150;52.352;14.058;2022-12-07T00:14:54;4.30;;;3.00;;
325;SDS011;150;52.352;14.058;2022-12-07T00:17:20;3.53;;;2.60;;
325;SDS011;150;52.352;14.058;2022-12-07T00:19:48;4.55;;;3.00;;
325;SDS011;150;52.352;14.058;2022-12-07T00:22:15;4.03;;;2.33;;
325;SDS011;150;52.352;14.058;2022-12-07T00:24:41;4.10;;;2.70;;
325;SDS011;150;52.352;14.058;2022-12-07T00:27:08;3.92;;;2.35;;
325;SDS011;150;52.352;14.058;2022-12-07T00:29:34;3.88;;;2.70;;
325;SDS011;150;52.352;14.058;2022-12-07T00:32:02;4.60;;;2.70;;
325;SDS011;150;52.352;14.058;2022-12-07T00:34:29;5.50;;;3.45;;
325;SDS011;150;52.352;14.058;2022-12-07T00:36:57;3.20;;;2.30;;
325;SDS011;150;52.352;14.058;2022-12-07T00:39:24;5.65;;;3.15;;
325;SDS011;150;52.352;14.058;2022-12-07T00:41:50;3.78;;;2.78;;
325;SDS011;150;52.352;14.058;2022-12-07T00:44:17;4.70;;;3.30;;
325;SDS011;150;52.352;14.058;2022-12-07T00:46:43;5.97;;;3.90;;
325;SDS011;150;52.352;14.058;2022-12-07T00:49:11;6.25;;;3.95;;
325;SDS011;150;52.352;14.058;2022-12-07T00:51:38;6.05;;;3.65;;
325;SDS011;150;52.352;14.058;2022-12-07T00:54:05;8.05;;;4.20;;
325;SDS011;150;52.352;14.058;2022-12-07T00:56:32;8.40;;;4.70;;
325;SDS011;150;52.352;14.058;2022-12-07T00:59:00;7.53;;;4.30;;
325;SDS011;150;52.352;14.058;2022-12-07T01:01:29;8.65;;;5.15;;
325;SDS011;150;52.352;14.058;2022-12-07T01:03:57;7.15;;;4.53;;
325;SDS011;150;52.352;14.058;2022-12-07T01:06:26;8.60;;;4.72;;
325;SDS011;150;52.352;14.058;2022-12-07T01:08:53;8.77;;;5.53;;
325;SDS011;150;52.352;14.058;2022-12-07T01:11:21;8.48;;;4.90;;
325;SDS011;150;52.352;14.058;2022-12-07T01:13:49;10.00;;;6.57;;
325;SDS011;150;52.352;14.058;2022-12-07T01:16:16;9.40;;;5.65;;
325;SDS011;150;52.352;14.058;2022-12-07T01:18:45;12.60;;;6.88;;
325;SDS011;150;52.352;14.058;2022-12-07T01:21:14;10.45;;;6.72;;
325;SDS011;150;52.352;14.058;2022-12-07T01:23:43;12.40;;;6.15;;
325;SDS011;150;52.352;14.058;2022-12-07T01:26:10;13.73;;;6.38;;
325;SDS011;150;52.352;14.058;2022-12-07T01:28:40;12.75;;;5.90;;
325;SDS011;150;52.352;14.058;2022-12-07T01:31:09;10.15;;;6.10;;
325;SDS011;150;52.352;14.058;2022-12-07T01:33:37;10.17;;;6.30;;
325;SDS011;150;52.352;14.058;2022-12-07T01:36:06;9.53;;;6.63;;
325;SDS011;150;52.352;14.058;2022-12-07T01:38:34;10.30;;;6.00;;
325;SDS011;150;52.352;14.058;2022-12-07T01:41:01;9.52;;;6.47;;
325;SDS011;150;52.352;14.058;2022-12-07T01:43:29;9.35;;;5.75;;
325;SDS011;150;52.352;14.058;2022-12-07T01:45:59;10.70;;;6.50;;
325;SDS011;150;52.352;14.058;2022-12-07T01:48:27;10.43;;;6.00;;
325;SDS011;150;52.352;14.058;2022-12-07T01:51:00;8.20;;;6.15;;
325;SDS011;150;52.352;14.058;2022-12-07T01:53:30;10.13;;;6.70;;
325;SDS011;150;52.352;14.058;2022-12-07T01:56:00;7.07;;;5.35;;
325;SDS011;150;52.352;14.058;2022-12-07T01:58:27;13.32;;;6.50;;
325;SDS011;150;52.352;14.058;2022-12-07T02:00:54;10.60;;;5.30;;
325;SDS011;150;52.352;14.058;2022-12-07T02:03:24;10.20;;;5.78;;
325;SDS011;150;52.352;14.058;2022-12-07T02:05:57;8.30;;;5.78;;
325;SDS011;150;52.352;14.058;2022-12-07T02:08:25;8.20;;;5.00;;
325;SDS011;150;52.352;14.058;2022-12-07T02:10:52;8.30;;;5.45;;
325;SDS011;150;52.352;14.058;2022-12-07T02:13:19;10.93;;;5.28;;
325;SDS011;150;52.352;14.058;2022-12-07T02:15:53;6.70;;;5.20;;
325;SDS011;150;52.352;14.058;2022-12-07T02:18:38;8.68;;;5.38;;
325;SDS011;150;52.352;14.058;2022-12-07T02:21:18;8.40;;;5.13;;
325;SDS011;150;52.352;14.058;2022-12-07T02:27:04;7.97;;;5.63;;
325;SDS011;150;52.352;14.058;2022-12-07T02:29:42;8.93;;;5.20;;
325;SDS011;150;52.352;14.058;2022-12-07T02:32:13;7.70;;;5.47;;
325;SDS011;150;52.352;14.058;2022-12-07T02:34:44;8.45;;;5.22;;
325;SDS011;150;52.352;14.058;2022-12-07T02:37:18;8.80;;;5.60;;
325;SDS011;150;52.352;14.058;2022-12-07T02:39:52;8.50;;;5.47;;
325;SDS011;150;52.352;14.058;2022-12-07T02:42:23;6.83;;;4.97;;
325;SDS011;150;52.352;14.058;2022-12-07T02:44:58;7.47;;;5.20;;
325;SDS011;150;52.352;14.058;2022-12-07T02:47:26;8.20;;;6.00;;
325;SDS011;150;52.352;14.058;2022-12-07T02:49:54;7.15;;;5.53;;
325;SDS011;150;52.352;14.058;2022-12-07T02:52:21;10.88;;;5.75;;
325;SDS011;150;52.352;14.058;2022-12-07T02:54:48;6.20;;;4.43;;
325;SDS011;150;52.352;14.058;2022-12-07T02:57:19;6.90;;;5.22;;
325;SDS011;150;52.352;14.058;2022-12-07T03:00:00;8.70;;;5.20;;
325;SDS011;150;52.352;14.058;2022-12-07T03:02:32;7.53;;;5.20;;
325;SDS011;150;52.352;14.058;2022-12-07T03:05:08;6.40;;;4.88;;
325;SDS011;150;52.352;14.058;2022-12-07T03:07:50;7.07;;;5.30;;
325;SDS011;150;52.352;14.058;2022-12-07T03:10:24;8.45;;;5.13;;
325;SDS011;150;52.352;14.058;2022-12-07T03:12:57;6.80;;;4.80;;
325;SDS011;150;52.352;14.058;2022-12-07T03:15:33;6.95;;;5.20;;
325;SDS011;150;52.352;14.058;2022-12-07T03:18:05;7.90;;;5.40;;
325;SDS011;150;52.352;14.058;2022-12-07T03:20:35;7.65;;;5.20;;
325;SDS011;150;52.352;14.058;2022-12-07T03:23:05;6.85;;;5.18;;
325;SDS011;150;52.352;14.058;2022-12-07T03:25:34;9.13;;;5.40;;
325;SDS011;150;52.352;14.058;2022-12-07T03:28:05;5.60;;;3.90;;
325;SDS011;150;52.352;14.058;2022-12-07T03:30:35;7.55;;;5.35;;
325;SDS011;150;52.352;14.058;2022-12-07T03:33:08;6.43;;;4.10;;
325;SDS011;150;52.352;14.058;2022-12-07T03:35:40;7.97;;;5.68;;
325;SDS011;150;52.352;14.058;2022-12-07T03:38:13;6.07;;;4.60;;
325;SDS011;150;52.352;14.058;2022-12-07T03:40:44;6.80;;;4.45;;
325;SDS011;150;52.352;14.058;2022-12-07T03:43:14;5.65;;;4.30;;
325;SDS011;150;52.352;14.058;2022-12-07T03:45:43;5.30;;;4.00;;
325;SDS011;150;52.352;14.058;2022-12-07T03:48:16;5.72;;;4.30;;
325;SDS011;150;52.352;14.058;2022-12-07T03:50:50;5.65;;;3.92;;
325;SDS011;150;52.352;14.058;2022-12-07T03:53:22;6.30;;;4.45;;
325;SDS011;150;52.352;14.058;2022-12-07T03:55:54;7.60;;;4.40;;
325;SDS011;150;52.352;14.058;2022-12-07T03:58:23;6.50;;;4.72;;
325;SDS011;150;52.352;14.058;2022-12-07T04:01:00;7.43;;;4.72;;
325;SDS011;150;52.352;14.058;2022-12-07T04:03:28;4.78;;;3.53;;
325;SDS011;150;52.352;14.058;2022-12-07T04:05:57;5.78;;;3.70;;
325;SDS011;150;52.352;14.058;2022-12-07T04:08:24;13.63;;;10.10;;
325;SDS011;150;52.352;14.058;2022-12-07T04:10:51;10.55;;;7.20;;
325;SDS011;150;52.352;14.058;2022-12-07T04:13:18;5.13;;;3.60;;
325;SDS011;150;52.352;14.058;2022-12-07T04:15:48;6.22;;;3.72;;
325;SDS011;150;52.352;14.058;2022-12-07T04:18:18;8.10;;;4.18;;
325;SDS011;150;52.352;14.058;2022-12-07T04:20:48;5.78;;;4.43;;
325;SDS011;150;52.352;14.058;2022-12-07T04:23:18;5.60;;;4.25;;
325;SDS011;150;52.352;14.058;2022-12-07T04:25:47;6.88;;;4.35;;
325;SDS011;150;52.352;14.058;2022-12-07T04:28:14;5.43;;;3.53;;
325;SDS011;150;52.352;14.058;2022-12-07T04:30:41;4.37;;;3.67;;
325;SDS011;150;52.352;14.058;2022-12-07T04:33:08;4.85;;;3.17;;
325;SDS011;150;52.352;14.058;2022-12-07T04:35:37;4.30;;;3.30;;
325;SDS011;150;52.352;14.058;2022-12-07T04:38:04;4.38;;;3.03;;
325;SDS011;150;52.352;14.058;2022-12-07T04:40:31;6.00;;;4.10;;
325;SDS011;150;52.352;14.058;2022-12-07T04:42:59;5.78;;;3.85;;
325;SDS011;150;52.352;14.058;2022-12-07T04:45:29;6.43;;;3.92;;
325;SDS011;150;52.352;14.058;2022-12-07T04:47:59;5.60;;;3.90;;
325;SDS011;150;52.352;14.058;2022-12-07T04:50:27;5.90;;;3.70;;
325;SDS011;150;52.352;14.058;2022-12-07T04:52:56;6.60;;;4.18;;
325;SDS011;150;52.352;14.058;2022-12-07T04:55:27;6.27;;;4.70;;
325;SDS011;150;52.352;14.058;2022-12-07T04:57:54;8.98;;;5.40;;
325;SDS011;150;52.352;14.058;2022-12-07T05:00:21;7.03;;;4.75;;
325;SDS011;150;52.352;14.058;2022-12-07T05:02:49;9.77;;;5.80;;
325;SDS011;150;52.352;14.058;2022-12-07T05:05:16;9.52;;;6.15;;
325;SDS011;150;52.352;14.058;2022-12-07T05:07:43;11.65;;;6.55;;
325;SDS011;150;52.352;14.058;2022-12-07T05:10:11;8.85;;;5.97;;
325;SDS011;150;52.352;14.058;2022-12-07T05:12:37;11.10;;;6.22;;
325;SDS011;150;52.352;14.058;2022-12-07T05:15:04;11.00;;;6.50;;
325;SDS011;150;52.352;14.058;2022-12-07T05:17:31;8.52;;;6.05;;
325;SDS011;150;52.352;14.058;2022-12-07T05:19:58;12.73;;;6.73;;
325;SDS011;150;52.352;14.058;2022-12-07T05:22:25;10.85;;;8.00;;
325;SDS011;150;52.352;14.058;2022-12-07T05:24:53;11.45;;;7.15;;
325;SDS011;150;52.352;14.058;2022-12-07T05:27:21;11.10;;;7.23;;
325;SDS011;150;52.352;14.058;2022-12-07T05:29:49;10.35;;;7.13;;
325;SDS011;150;52.352;14.058;2022-12-07T05:34:46;10.73;;;7.05;;
325;SDS011;150;52.352;14.058;2022-12-07T05:37:16;10.50;;;6.90;;
325;SDS011;150;52.352;14.058;2022-12-07T05:39:43;10.75;;;7.70;;
325;SDS011;150;52.352;14.058;2022-12-07T05:42:10;11.45;;;7.07;;
325;SDS011;150;52.352;14.058;2022-12-07T05:44:44;12.10;;;8.53;;
325;SDS011;150;52.352;14.058;2022-12-07T05:47:13;16.30;;;7.93;;
325;SDS011;150;52.352;14.058;2022-12-07T05:49:42;14.52;;;9.50;;
325;SDS011;150;52.352;14.058;2022-12-07T05:52:09;16.98;;;8.75;;
325;SDS011;150;52.352;14.058;2022-12-07T05:54:37;13.75;;;8.00;;
325;SDS011;150;52.352;14.058;2022-12-07T05:57:07;15.70;;;9.40;;
325;SDS011;150;52.352;14.058;2022-12-07T05:59:35;10.02;;;7.28;;
325;SDS011;150;52.352;14.058;2022-12-07T06:02:04;11.65;;;7.82;;
325;SDS011;150;52.352;14.058;2022-12-07T06:04:35;14.50;;;8.57;;
325;SDS011;150;52.352;14.058;2022-12-07T06:07:04;15.77;;;9.73;;
325;SDS011;150;52.352;14.058;2022-12-07T06:09:32;15.23;;;9.63;;
325;SDS011;150;52.352;14.058;2022-12-07T06:11:59;13.75;;;9.30;;
325;SDS011;150;52.352;14.058;2022-12-07T06:14:44;14.15;;;9.13;;
325;SDS011;150;52.352;14.058;2022-12-07T06:17:13;18.92;;;9.27;;
325;SDS011;150;52.352;14.058;2022-12-07T06:19:41;16.10;;;8.93;;
325;SDS011;150;52.352;14.058;2022-12-07T06:22:08;15.40;;;9.48;;
325;SDS011;150;52.352;14.058;2022-12-07T06:24:37;13.52;;;9.50;;
325;SDS011;150;52.352;14.058;2022-12-07T06:27:05;14.10;;;10.10;;
325;SDS011;150;52.352;14.058;2022-12-07T06:29:32;12.60;;;7.80;;
325;SDS011;150;52.352;14.058;2022-12-07T06:31:59;13.90;;;7.93;;
325;SDS011;150;52.352;14.058;2022-12-07T06:34:28;11.77;;;7.60;;
325;SDS011;150;52.352;14.058;2022-12-07T06:36:55;14.27;;;8.82;;
325;SDS011;150;52.352;14.058;2022-12-07T06:39:25;17.48;;;8.85;;
325;SDS011;150;52.352;14.058;2022-12-07T06:41:55;12.50;;;8.17;;
325;SDS011;150;52.352;14.058;2022-12-07T06:44:23;14.00;;;9.27;;
325;SDS011;150;52.352;14.058;2022-12-07T06:46:52;16.05;;;8.48;;
325;SDS011;150;52.352;14.058;2022-12-07T06:49:19;14.90;;;9.23;;
325;SDS011;150;52.352;14.058;2022-12-07T06:51:48;16.58;;;10.32;;
325;SDS011;150;52.352;14.058;2022-12-07T06:54:19;17.13;;;10.07;;
325;SDS011;150;52.352;14.058;2022-12-07T06:56:47;19.85;;;11.48;;
325;SDS011;150;52.352;14.058;2022-12-07T06:59:14;16.98;;;9.52;;
325;SDS011;150;52.352;14.058;2022-12-07T07:01:42;15.25;;;8.93;;
325;SDS011;150;52.352;14.058;2022-12-07T07:04:11;14.90;;;9.40;;
325;SDS011;150;52.352;14.058;2022-12-07T07:06:38;13.75;;;8.68;;
325;SDS011;150;52.352;14.058;2022-12-07T07:09:07;18.45;;;12.13;;
325;SDS011;150;52.352;14.058;2022-12-07T07:11:37;15.38;;;10.07;;
325;SDS011;150;52.352;14.058;2022-12-07T07:14:05;16.70;;;10.37;;
325;SDS011;150;52.352;14.058;2022-12-07T07:16:32;16.48;;;10.23;;
325;SDS011;150;52.352;14.058;2022-12-07T07:19:02;14.30;;;9.13;;
325;SDS011;150;52.352;14.058;2022-12-07T07:21:30;14.23;;;8.25;;
325;SDS011;150;52.352;14.058;2022-12-07T07:24:00;13.83;;;9.00;;
325;SDS011;150;52.352;14.058;2022-12-07T07:26:32;17.48;;;10.60;;
325;SDS011;150;52.352;14.058;2022-12-07T07:28:59;18.65;;;10.27;;
325;SDS011;150;52.352;14.058;2022-12-07T07:31:27;14.52;;;9.15;;
325;SDS011;150;52.352;14.058;2022-12-07T07:33:54;19.02;;;10.38;;
325;SDS011;150;52.352;14.058;2022-12-07T07:36:21;19.45;;;10.52;;
325;SDS011;150;52.352;14.058;2022-12-07T07:38:48;12.13;;;8.90;;
325;SDS011;150;52.352;14.058;2022-12-07T07:41:15;12.95;;;9.38;;
325;SDS011;150;52.352;14.058;2022-12-07T07:43:43;16.20;;;10.15;;
325;SDS011;150;52.352;14.058;2022-12-07T07:46:10;20.58;;;11.48;;
325;SDS011;150;52.352;14.058;2022-12-07T07:48:37;18.60;;;11.35;;
325;SDS011;150;52.352;14.058;2022-12-07T07:51:05;17.83;;;11.00;;
325;SDS011;150;52.352;14.058;2022-12-07T07:53:33;16.00;;;10.35;;
325;SDS011;150;52.352;14.058;2022-12-07T07:56:00;15.13;;;10.20;;
325;SDS011;150;52.352;14.058;2022-12-07T07:58:27;17.70;;;10.25;;
325;SDS011;150;52.352;14.058;2022-12-07T08:00:55;14.20;;;10.18;;
325;SDS011;150;52.352;14.058;2022-12-07T08:03:22;16.45;;;10.32;;
325;SDS011;150;52.352;14.058;2022-12-07T08:05:50;14.88;;;10.18;;
325;SDS011;150;52.352;14.058;2022-12-07T08:08:16;14.50;;;8.93;;
325;SDS011;150;52.352;14.058;2022-12-07T08:10:44;14.85;;;9.13;;
325;SDS011;150;52.352;14.058;2022-12-07T08:13:14;17.38;;;9.00;;
325;SDS011;150;52.352;14.058;2022-12-07T08:15:44;18.87;;;10.80;;
325;SDS011;150;52.352;14.058;2022-12-07T08:18:15;14.40;;;10.52;;
325;SDS011;150;52.352;14.058;2022-12-07T08:20:42;20.25;;;12.57;;
325;SDS011;150;52.352;14.058;2022-12-07T08:23:10;19.42;;;12.18;;
325;SDS011;150;52.352;14.058;2022-12-07T08:25:37;17.27;;;10.52;;
325;SDS011;150;52.352;14.058;2022-12-07T08:28:05;18.63;;;11.13;;
325;SDS011;150;52.352;14.058;2022-12-07T08:30:32;15.73;;;9.73;;
325;SDS011;150;52.352;14.058;2022-12-07T08:33:00;15.10;;;10.57;;
325;SDS011;150;52.352;14.058;2022-12-07T08:35:29;15.20;;;10.48;;
325;SDS011;150;52.352;14.058;2022-12-07T08:37:59;16.38;;;10.77;;
325;SDS011;150;52.352;14.058;2022-12-07T08:40:27;13.50;;;9.80;;
325;SDS011;150;52.352;14.058;2022-12-07T08:42:55;14.75;;;9.75;;
325;SDS011;150;52.352;14.058;2022-12-07T08:45:22;17.17;;;11.27;;
325;SDS011;150;52.352;14.058;2022-12-07T08:47:50;18.88;;;11.25;;
325;SDS011;150;52.352;14.058;2022-12-07T08:50:20;16.10;;;10.85;;
325;SDS011;150;52.352;14.058;2022-12-07T08:52:50;15.32;;;9.75;;
325;SDS011;150;52.352;14.058;2022-12-07T08:55:19;15.82;;;10.18;;
325;SDS011;150;52.352;14.058;2022-12-07T08:57:46;15.15;;;10.25;;
325;SDS011;150;52.352;14.058;2022-12-07T09:00:14;15.88;;;10.32;;
325;SDS011;150;52.352;14.058;2022-12-07T09:02:43;15.73;;;9.73;;
325;SDS011;150;52.352;14.058;2022-12-07T09:05:10;12.13;;;8.00;;
325;SDS011;150;52.352;14.058;2022-12-07T09:07:39;11.07;;;7.55;;
325;SDS011;150;52.352;14.058;2022-12-07T09:10:10;13.48;;;7.88;;
325;SDS011;150;52.352;14.058;2022-12-07T09:12:37;12.80;;;6.93;;
325;SDS011;150;52.352;14.058;2022-12-07T09:15:04;13.23;;;8.02;;
325;SDS011;150;52.352;14.058;2022-12-07T09:17:33;12.50;;;8.20;;
325;SDS011;150;52.352;14.058;2022-12-07T09:20:01;11.57;;;8.50;;
325;SDS011;150;52.352;14.058;2022-12-07T09:22:28;11.15;;;7.03;;
325;SDS011;150;52.352;14.058;2022-12-07T09:24:56;10.63;;;6.43;;
325;SDS011;150;52.352;14.058;2022-12-07T09:27:24;11.15;;;6.72;;
325;SDS011;150;52.352;14.058;2022-12-07T09:29:52;10.98;;;6.32;;
325;SDS011;150;52.352;14.058;2022-12-07T09:32:19;8.40;;;5.90;;
325;SDS011;150;52.352;14.058;2022-12-07T09:34:46;7.82;;;6.00;;
325;SDS011;150;52.352;14.058;2022-12-07T09:37:13;10.13;;;6.03;;
325;SDS011;150;52.352;14.058;2022-12-07T09:39:40;6.88;;;4.90;;
325;SDS011;150;52.352;14.058;2022-12-07T09:42:08;6.00;;;3.78;;
325;SDS011;150;52.352;14.058;2022-12-07T09:44:43;6.53;;;3.60;;
325;SDS011;150;52.352;14.058;2022-12-07T09:47:10;5.28;;;3.40;;
325;SDS011;150;52.352;14.058;2022-12-07T09:49:37;4.43;;;2.92;;
325;SDS011;150;52.352;14.058;2022-12-07T09:52:16;2.42;;;1.90;;
325;SDS011;150;52.352;14.058;2022-12-07T09:54:45;4.30;;;2.20;;
325;SDS011;150;52.352;14.058;2022-12-07T09:57:14;1.92;;;1.55;;
325;SDS011;150;52.352;14.058;2022-12-07T09:59:43;2.97;;;1.70;;
325;SDS011;150;52.352;14.058;2022-12-07T10:02:21;1.80;;;1.38;;
325;SDS011;150;52.352;14.058;2022-12-07T10:05:00;2.10;;;1.63;;
325;SDS011;150;52.352;14.058;2022-12-07T10:07:29;1.90;;;1.40;;
325;SDS011;150;52.352;14.058;2022-12-07T10:09:56;3.70;;;1.10;;
325;SDS011;150;52.352;14.058;2022-12-07T10:12:23;1.70;;;1.50;;
325;SDS011;150;52.352;14.058;2022-12-07T10:14:55;1.73;;;1.05;;
325;SDS011;150;52.352;14.058;2022-12-07T10:17:33;2.33;;;1.70;;
325;SDS011;150;52.352;14.058;2022-12-07T10:20:11;2.10;;;1.50;;
325;SDS011;150;52.352;14.058;2022-12-07T10:23:00;2.10;;;1.20;;
325;SDS011;150;52.352;14.058;2022-12-07T10:25:30;2.60;;;1.20;;
325;SDS011;150;52.352;14.058;2022-12-07T10:28:03;2.08;;;1.48;;
325;SDS011;150;52.352;14.058;2022-12-07T10:30:55;1.30;;;0.90;;
325;SDS011;150;52.352;14.058;2022-12-07T10:33:28;2.40;;;1.48;;
325;SDS011;150;52.352;14.058;2022-12-07T10:35:59;5.18;;;1.60;;
325;SDS011;150;52.352;14.058;2022-12-07T10:38:35;3.10;;;1.58;;
325;SDS011;150;52.352;14.058;2022-12-07T10:41:11;1.85;;;1.20;;
325;SDS011;150;52.352;14.058;2022-12-07T10:43:41;1.70;;;1.00;;
325;SDS011;150;52.352;14.058;2022-12-07T10:46:39;1.40;;;1.10;;
325;SDS011;150;52.352;14.058;2022-12-07T10:49:23;2.42;;;1.45;;
325;SDS011;150;52.352;14.058;2022-12-07T10:52:05;1.65;;;1.13;;
325;SDS011;150;52.352;14.058;2022-12-07T10:54:41;2.10;;;1.30;;
325;SDS011;150;52.352;14.058;2022-12-07T10:57:22;1.98;;;1.10;;
325;SDS011;150;52.352;14.058;2022-12-07T11:00:09;3.00;;;1.30;;
325;SDS011;150;52.352;14.058;2022-12-07T11:05:53;4.15;;;1.77;;
325;SDS011;150;52.352;14.058;2022-12-07T11:08:33;3.03;;;1.30;;
325;SDS011;150;52.352;14.058;2022-12-07T11:11:13;1.70;;;1.20;;
325;SDS011;150;52.352;14.058;2022-12-07T11:13:46;2.00;;;1.10;;
325;SDS011;150;52.352;14.058;2022-12-07T11:16:21;1.77;;;1.00;;
325;SDS011;150;52.352;14.058;2022-12-07T11:19:03;1.50;;;0.98;;
325;SDS011;150;52.352;14.058;2022-12-07T11:21:53;1.65;;;0.95;;
325;SDS011;150;52.352;14.058;2022-12-07T11:24:24;1.20;;;0.90;;
325;SDS011;150;52.352;14.058;2022-12-07T11:27:01;1.95;;;0.80;;
325;SDS011;150;52.352;14.058;2022-12-07T11:35:05;1.50;;;0.80;;
325;SDS011;150;52.352;14.058;2022-12-07T11:37:39;1.63;;;1.02;;
325;SDS011;150;52.352;14.058;2022-12-07T11:40:12;1.33;;;0.80;;
325;SDS011;150;52.352;14.058;2022-12-07T11:42:44;1.20;;;0.77;;
325;SDS011;150;52.352;14.058;2022-12-07T11:45:18;1.60;;;0.90;;
325;SDS011;150;52.352;14.058;2022-12-07T11:47:51;2.33;;;1.50;;
325;SDS011;150;52.352;14.058;2022-12-07T11:50:26;2.35;;;1.40;;
325;SDS011;150;52.352;14.058;2022-12-07T11:52:59;2.63;;;1.60;;
325;SDS011;150;52.352;14.058;2022-12-07T11:55:32;3.13;;;1.75;;
325;SDS011;150;52.352;14.058;2022-12-07T11:58:12;3.28;;;1.63;;
325;SDS011;150;52.352;14.058;2022-12-07T12:00:47;2.55;;;1.80;;
325;SDS011;150;52.352;14.058;2022-12-07T12:03:17;6.57;;;3.00;;
325;SDS011;150;52.352;14.058;2022-12-07T12:05:55;6.20;;;3.75;;
325;SDS011;150;52.352;14.058;2022-12-07T12:08:23;4.45;;;1.98;;
325;SDS011;150;52.352;14.058;2022-12-07T12:10:59;2.35;;;1.70;;
325;SDS011;150;52.352;14.058;2022-12-07T12:13:39;3.10;;;1.83;;
325;SDS011;150;52.352;14.058;2022-12-07T12:19:25;3.83;;;1.10;;
325;SDS011;150;52.352;14.058;2022-12-07T12:22:00;2.60;;;1.30;;
325;SDS011;150;52.352;14.058;2022-12-07T12:24:38;1.60;;;1.13;;
325;SDS011;150;52.352;14.058;2022-12-07T12:27:08;2.00;;;1.10;;
325;SDS011;150;52.352;14.058;2022-12-07T12:29:44;2.72;;;1.30;;
325;SDS011;150;52.352;14.058;2022-12-07T12:32:13;3.40;;;1.50;;
325;SDS011;150;52.352;14.058;2022-12-07T12:34:57;2.50;;;1.40;;
325;SDS011;150;52.352;14.058;2022-12-07T12:37:45;3.40;;;1.58;;
325;SDS011;150;52.352;14.058;2022-12-07T12:55:15;4.20;;;2.30;;
325;SDS011;150;52.352;14.058;2022-12-07T12:57:48;3.90;;;2.10;;
325;SDS011;150;52.352;14.058;2022-12-07T13:03:53;3.58;;;2.00;;
325;SDS011;150;52.352;14.058;2022-12-07T13:06:31;3.67;;;2.20;;
325;SDS011;150;52.352;14.058;2022-12-07T13:09:03;2.60;;;1.83;;
325;SDS011;150;52.352;14.058;2022-12-07T13:11:32;4.25;;;2.13;;
325;SDS011;150;52.352;14.058;2022-12-07T13:17:08;2.13;;;1.48;;
325;SDS011;150;52.352;14.058;2022-12-07T13:25:19;2.10;;;1.50;;
325;SDS011;150;52.352;14.058;2022-12-07T13:27:59;2.00;;;1.80;;
325;SDS011;150;52.352;14.058;2022-12-07T13:30:31;2.33;;;1.73;;
325;SDS011;150;52.352;14.058;2022-12-07T13:33:00;1.88;;;1.20;;
325;SDS011;150;52.352;14.058;2022-12-07T13:35:30;3.50;;;1.77;;
325;SDS011;150;52.352;14.058;2022-12-07T13:38:01;4.40;;;1.50;;
325;SDS011;150;52.352;14.058;2022-12-07T13:40:30;4.28;;;1.70;;
325;SDS011;150;52.352;14.058;2022-12-07T13:42:57;3.30;;;1.60;;
325;SDS011;150;52.352;14.058;2022-12-07T13:45:26;3.00;;;1.48;;
325;SDS011;150;52.352;14.058;2022-12-07T13:48:11;2.78;;;1.67;;
325;SDS011;150;52.352;14.058;2022-12-07T13:50:42;4.20;;;1.73;;
325;SDS011;150;52.352;14.058;2022-12-07T13:53:11;3.50;;;1.60;;
325;SDS011;150;52.352;14.058;2022-12-07T13:55:44;2.03;;;1.60;;
325;SDS011;150;52.352;14.058;2022-12-07T13:58:15;4.00;;;1.70;;
325;SDS011;150;52.352;14.058;2022-12-07T14:00:42;3.95;;;2.03;;
325;SDS011;150;52.352;14.058;2022-12-07T14:03:25;2.80;;;1.70;;
325;SDS011;150;52.352;14.058;2022-12-07T14:06:12;2.80;;;1.35;;
325;SDS011;150;52.352;14.058;2022-12-07T14:08:46;2.95;;;1.30;;
325;SDS011;150;52.352;14.058;2022-12-07T14:11:15;4.05;;;1.70;;
325;SDS011;150;52.352;14.058;2022-12-07T14:13:49;3.95;;;1.30;;
325;SDS011;150;52.352;14.058;2022-12-07T14:16:24;4.80;;;1.90;;
325;SDS011;150;52.352;14.058;2022-12-07T14:18:55;4.20;;;1.90;;
325;SDS011;150;52.352;14.058;2022-12-07T14:21:24;3.83;;;1.65;;
325;SDS011;150;52.352;14.058;2022-12-07T14:24:02;2.58;;;1.52;;
325;SDS011;150;52.352;14.058;2022-12-07T14:26:41;2.60;;;1.30;;
325;SDS011;150;52.352;14.058;2022-12-07T14:29:22;1.90;;;1.20;;
325;SDS011;150;52.352;14.058;2022-12-07T14:31:57;2.63;;;1.10;;
325;SDS011;150;52.352;14.058;2022-12-07T14:34:38;1.75;;;1.10;;
325;SDS011;150;52.352;14.058;2022-12-07T14:37:07;4.20;;;1.70;;
325;SDS011;150;52.352;14.058;2022-12-07T14:39:36;1.90;;;1.10;;
325;SDS011;150;52.352;14.058;2022-12-07T14:42:03;3.25;;;1.63;;
325;SDS011;150;52.352;14.058;2022-12-07T14:44:30;4.03;;;1.40;;
325;SDS011;150;52.352;14.058;2022-12-07T14:46:57;3.23;;;1.20;;
325;SDS011;150;52.352;14.058;2022-12-07T14:49:24;4.30;;;1.50;;
325;SDS011;150;52.352;14.058;2022-12-07T14:51:53;3.10;;;1.60;;
325;SDS011;150;52.352;14.058;2022-12-07T14:54:20;2.70;;;1.55;;
325;SDS011;150;52.352;14.058;2022-12-07T14:56:50;2.60;;;1.20;;
325;SDS011;150;52.352;14.058;2022-12-07T14:59:17;6.47;;;1.90;;
325;SDS011;150;52.352;14.058;2022-12-07T15:01:45;3.40;;;1.65;;
325;SDS011;150;52.352;14.058;2022-12-07T15:04:12;4.38;;;1.70;;
325;SDS011;150;52.352;14.058;2022-12-07T15:06:41;5.82;;;1.33;;
325;SDS011;150;52.352;14.058;2022-12-07T15:09:10;3.63;;;1.00;;
325;SDS011;150;52.352;14.058;2022-12-07T15:11:37;2.17;;;1.30;;
325;SDS011;150;52.352;14.058;2022-12-07T15:14:04;2.20;;;1.40;;
325;SDS011;150;52.352;14.058;2022-12-07T15:16:37;6.10;;;1.70;;
325;SDS011;150;52.352;14.058;2022-12-07T15:19:07;3.88;;;1.60;;
325;SDS011;150;52.352;14.058;2022-12-07T15:21:39;3.17;;;1.65;;
325;SDS011;150;52.352;14.058;2022-12-07T15:24:08;4.25;;;1.60;;
325;SDS011;150;52.352;14.058;2022-12-07T15:26:38;3.70;;;1.53;;
325;SDS011;150;52.352;14.058;2022-12-07T15:29:06;5.90;;;1.70;;
325;SDS011;150;52.352;14.058;2022-12-07T15:31:33;5.32;;;1.90;;
325;SDS011;150;52.352;14.058;2022-12-07T15:34:01;2.83;;;1.73;;
325;SDS011;150;52.352;14.058;2022-12-07T15:36:29;3.40;;;1.60;;
325;SDS011;150;52.352;14.058;2022-12-07T15:38:57;2.80;;;1.63;;
325;SDS011;150;52.352;14.058;2022-12-07T15:41:25;3.67;;;2.10;;
325;SDS011;150;52.352;14.058;2022-12-07T15:43:53;3.90;;;1.50;;
325;SDS011;150;52.352;14.058;2022-12-07T15:46:38;9.00;;;2.47;;
325;SDS011;150;52.352;14.058;2022-12-07T15:49:07;3.50;;;2.20;;
325;SDS011;150;52.352;14.058;2022-12-07T15:51:40;6.50;;;2.42;;
325;SDS011;150;52.352;14.058;2022-12-07T15:54:09;2.80;;;1.80;;
325;SDS011;150;52.352;14.058;2022-12-07T15:56:41;4.50;;;1.50;;
325;SDS011;150;52.352;14.058;2022-12-07T15:59:09;4.77;;;1.70;;
325;SDS011;150;52.352;14.058;2022-12-07T16:01:39;4.20;;;1.80;;
325;SDS011;150;52.352;14.058;2022-12-07T16:04:06;3.60;;;2.30;;
325;SDS011;150;52.352;14.058;2022-12-07T16:06:33;3.35;;;2.03;;
325;SDS011;150;52.352;14.058;2022-12-07T16:09:00;8.73;;;1.80;;
325;SDS011;150;52.352;14.058;2022-12-07T16:11:27;4.80;;;2.05;;
325;SDS011;150;52.352;14.058;2022-12-07T16:13:55;4.78;;;2.70;;
325;SDS011;150;52.352;14.058;2022-12-07T16:16:25;3.90;;;2.22;;
325;SDS011;150;52.352;14.058;2022-12-07T16:18:52;5.05;;;2.40;;
325;SDS011;150;52.352;14.058;2022-12-07T16:21:19;3.70;;;2.40;;
325;SDS011;150;52.352;14.058;2022-12-07T16:23:46;6.35;;;2.50;;
325;SDS011;150;52.352;14.058;2022-12-07T16:26:15;7.13;;;2.20;;
325;SDS011;150;52.352;14.058;2022-12-07T16:28:43;5.30;;;2.28;;